الصفحة الرئيسية
METAR-TAF:

METAR-TAF

مطار :

بلودير سيتي, نيفادا, الولايات المتحدة

دائرة عرض: 35-56-50N, خط طول: 114-51-37W, ارتفاع: 671 متر

مراقبة الطقس الحالي

تاريخ ووقت الإصدار 18 دقيقة قبل الساعة 07:55UTC
ريح 8 عقدة من الشمال الغربي
درجة الحرارة 13°درجة مئوية
الرطوبة 58%
ضغط 1014 hPa
الرؤية: 16.1 كم
غيوم مفككة على ارتفاع 7000 قدم
ملبد بالغيوم على ارتفاع 7500 قدم

METAR: KBVU 210755Z AUTO 32008KT 10SM BKN070 OVC075 13/05 A2994 RMK AO2

زمن: 01:13 (08:13 UTC)


TAF: مفقودة

أرصاد الطقس والتوقعات من أكثر من 4000 مطار (تقارير الطقس للمطار METAR والتنبؤ بالطقس بالمطارTAF).

المحطات المتاحة هي النقط الصفراء والحمراء على الخريطة.

حرك المؤشر فوق النقطة لمعرفة اسم المحطة.

ثم انقر لمعرفة أرصاد وتوقعات الطقس.

لتغيير الخارطة: اضغط على الأزرار الخضراء مع رمز الصليب الأسود للتكبير. على الزر الأخضر مع شرطة للتصغير، أو على الأسهم الخضراء للخرائط المجاورة.


METAR-TAF: